sensor_id;sensor_type;location;lat;lon;timestamp;P1;durP1;ratioP1;P2;durP2;ratioP2
7665;SDS011;3875;46.562;4.898;2023-04-08T00:01:52;5.87;;;3.53;;
7665;SDS011;3875;46.562;4.898;2023-04-08T00:04:18;5.97;;;3.27;;
7665;SDS011;3875;46.562;4.898;2023-04-08T00:06:43;5.03;;;3.40;;
7665;SDS011;3875;46.562;4.898;2023-04-08T00:09:09;4.37;;;3.27;;
7665;SDS011;3875;46.562;4.898;2023-04-08T00:11:35;4.27;;;3.10;;
7665;SDS011;3875;46.562;4.898;2023-04-08T00:14:02;6.13;;;3.27;;
7665;SDS011;3875;46.562;4.898;2023-04-08T00:16:28;6.97;;;2.80;;
7665;SDS011;3875;46.562;4.898;2023-04-08T00:18:54;3.90;;;3.23;;
7665;SDS011;3875;46.562;4.898;2023-04-08T00:21:20;5.57;;;3.33;;
7665;SDS011;3875;46.562;4.898;2023-04-08T00:23:47;3.33;;;2.73;;
7665;SDS011;3875;46.562;4.898;2023-04-08T00:26:13;3.83;;;2.83;;
7665;SDS011;3875;46.562;4.898;2023-04-08T00:28:38;3.57;;;2.80;;
7665;SDS011;3875;46.562;4.898;2023-04-08T00:31:05;4.57;;;3.13;;
7665;SDS011;3875;46.562;4.898;2023-04-08T00:33:30;3.20;;;2.90;;
7665;SDS011;3875;46.562;4.898;2023-04-08T00:35:56;4.23;;;2.77;;
7665;SDS011;3875;46.562;4.898;2023-04-08T00:38:22;6.67;;;3.17;;
7665;SDS011;3875;46.562;4.898;2023-04-08T00:40:47;3.20;;;2.73;;
7665;SDS011;3875;46.562;4.898;2023-04-08T00:43:13;5.87;;;3.00;;
7665;SDS011;3875;46.562;4.898;2023-04-08T00:45:40;4.17;;;2.70;;
7665;SDS011;3875;46.562;4.898;2023-04-08T00:48:06;3.80;;;2.93;;
7665;SDS011;3875;46.562;4.898;2023-04-08T00:50:32;3.13;;;2.80;;
7665;SDS011;3875;46.562;4.898;2023-04-08T00:52:57;2.87;;;2.40;;
7665;SDS011;3875;46.562;4.898;2023-04-08T00:55:23;4.87;;;3.03;;
7665;SDS011;3875;46.562;4.898;2023-04-08T00:57:49;3.63;;;3.10;;
7665;SDS011;3875;46.562;4.898;2023-04-08T01:00:14;3.03;;;2.73;;
7665;SDS011;3875;46.562;4.898;2023-04-08T01:02:50;4.17;;;2.70;;
7665;SDS011;3875;46.562;4.898;2023-04-08T01:05:35;2.90;;;2.60;;
7665;SDS011;3875;46.562;4.898;2023-04-08T01:08:10;3.07;;;2.47;;
7665;SDS011;3875;46.562;4.898;2023-04-08T01:10:37;4.83;;;3.20;;
7665;SDS011;3875;46.562;4.898;2023-04-08T01:13:11;2.90;;;2.60;;
7665;SDS011;3875;46.562;4.898;2023-04-08T01:15:41;2.97;;;2.67;;
7665;SDS011;3875;46.562;4.898;2023-04-08T01:18:10;4.93;;;3.00;;
7665;SDS011;3875;46.562;4.898;2023-04-08T01:20:37;5.83;;;3.20;;
7665;SDS011;3875;46.562;4.898;2023-04-08T01:26:02;3.33;;;2.20;;
7665;SDS011;3875;46.562;4.898;2023-04-08T01:28:28;4.17;;;3.07;;
7665;SDS011;3875;46.562;4.898;2023-04-08T01:30:56;4.43;;;2.70;;
7665;SDS011;3875;46.562;4.898;2023-04-08T01:33:23;2.90;;;2.60;;
7665;SDS011;3875;46.562;4.898;2023-04-08T01:35:50;2.97;;;2.67;;
7665;SDS011;3875;46.562;4.898;2023-04-08T01:38:17;4.50;;;2.93;;
7665;SDS011;3875;46.562;4.898;2023-04-08T01:40:45;2.93;;;2.47;;
7665;SDS011;3875;46.562;4.898;2023-04-08T01:43:15;4.23;;;2.90;;
7665;SDS011;3875;46.562;4.898;2023-04-08T01:45:42;5.13;;;2.77;;
7665;SDS011;3875;46.562;4.898;2023-04-08T01:48:09;2.80;;;2.60;;
7665;SDS011;3875;46.562;4.898;2023-04-08T01:50:42;3.20;;;2.70;;
7665;SDS011;3875;46.562;4.898;2023-04-08T01:53:09;2.93;;;2.60;;
7665;SDS011;3875;46.562;4.898;2023-04-08T01:55:36;3.07;;;2.30;;
7665;SDS011;3875;46.562;4.898;2023-04-08T01:58:04;4.03;;;2.60;;
7665;SDS011;3875;46.562;4.898;2023-04-08T02:00:32;4.27;;;2.70;;
7665;SDS011;3875;46.562;4.898;2023-04-08T02:02:59;4.47;;;2.97;;
7665;SDS011;3875;46.562;4.898;2023-04-08T02:05:27;2.90;;;2.70;;
7665;SDS011;3875;46.562;4.898;2023-04-08T02:07:53;4.13;;;2.53;;
7665;SDS011;3875;46.562;4.898;2023-04-08T02:10:18;2.90;;;2.57;;
7665;SDS011;3875;46.562;4.898;2023-04-08T02:12:44;3.10;;;2.80;;
7665;SDS011;3875;46.562;4.898;2023-04-08T02:15:11;4.57;;;2.60;;
7665;SDS011;3875;46.562;4.898;2023-04-08T02:25:27;4.20;;;3.00;;
7665;SDS011;3875;46.562;4.898;2023-04-08T02:27:54;4.73;;;2.30;;
7665;SDS011;3875;46.562;4.898;2023-04-08T02:30:21;4.93;;;3.07;;
7665;SDS011;3875;46.562;4.898;2023-04-08T02:32:49;2.80;;;2.43;;
7665;SDS011;3875;46.562;4.898;2023-04-08T02:35:17;3.47;;;2.73;;
7665;SDS011;3875;46.562;4.898;2023-04-08T02:37:45;4.60;;;3.10;;
7665;SDS011;3875;46.562;4.898;2023-04-08T02:40:22;3.33;;;2.83;;
7665;SDS011;3875;46.562;4.898;2023-04-08T02:42:47;3.60;;;3.10;;
7665;SDS011;3875;46.562;4.898;2023-04-08T02:45:13;4.83;;;3.10;;
7665;SDS011;3875;46.562;4.898;2023-04-08T02:47:39;2.97;;;2.67;;
7665;SDS011;3875;46.562;4.898;2023-04-08T02:50:05;4.33;;;2.90;;
7665;SDS011;3875;46.562;4.898;2023-04-08T02:52:31;4.17;;;3.13;;
7665;SDS011;3875;46.562;4.898;2023-04-08T02:54:56;2.83;;;2.37;;
7665;SDS011;3875;46.562;4.898;2023-04-08T02:57:22;3.13;;;2.70;;
7665;SDS011;3875;46.562;4.898;2023-04-08T02:59:48;3.57;;;2.70;;
7665;SDS011;3875;46.562;4.898;2023-04-08T03:02:13;4.00;;;2.43;;
7665;SDS011;3875;46.562;4.898;2023-04-08T03:04:39;4.23;;;2.63;;
7665;SDS011;3875;46.562;4.898;2023-04-08T03:07:04;4.07;;;2.83;;
7665;SDS011;3875;46.562;4.898;2023-04-08T03:09:30;4.77;;;2.70;;
7665;SDS011;3875;46.562;4.898;2023-04-08T03:11:56;4.33;;;2.93;;
7665;SDS011;3875;46.562;4.898;2023-04-08T03:14:22;6.23;;;2.67;;
7665;SDS011;3875;46.562;4.898;2023-04-08T03:16:47;4.23;;;2.87;;
7665;SDS011;3875;46.562;4.898;2023-04-08T03:19:13;4.80;;;3.00;;
7665;SDS011;3875;46.562;4.898;2023-04-08T03:21:39;3.90;;;2.77;;
7665;SDS011;3875;46.562;4.898;2023-04-08T03:24:05;3.97;;;2.83;;
7665;SDS011;3875;46.562;4.898;2023-04-08T03:26:31;3.13;;;2.73;;
7665;SDS011;3875;46.562;4.898;2023-04-08T03:28:56;5.37;;;2.90;;
7665;SDS011;3875;46.562;4.898;2023-04-08T03:31:22;5.73;;;3.03;;
7665;SDS011;3875;46.562;4.898;2023-04-08T03:33:48;3.70;;;3.23;;
7665;SDS011;3875;46.562;4.898;2023-04-08T03:36:13;4.37;;;2.93;;
7665;SDS011;3875;46.562;4.898;2023-04-08T03:38:39;3.70;;;3.10;;
7665;SDS011;3875;46.562;4.898;2023-04-08T03:41:05;6.17;;;3.10;;
7665;SDS011;3875;46.562;4.898;2023-04-08T03:43:30;7.40;;;3.20;;
7665;SDS011;3875;46.562;4.898;2023-04-08T03:45:56;4.10;;;2.77;;
7665;SDS011;3875;46.562;4.898;2023-04-08T03:48:22;5.40;;;3.17;;
7665;SDS011;3875;46.562;4.898;2023-04-08T03:50:48;6.50;;;2.70;;
7665;SDS011;3875;46.562;4.898;2023-04-08T03:53:13;4.67;;;2.87;;
7665;SDS011;3875;46.562;4.898;2023-04-08T03:55:39;3.23;;;2.93;;
7665;SDS011;3875;46.562;4.898;2023-04-08T03:58:05;3.73;;;2.70;;
7665;SDS011;3875;46.562;4.898;2023-04-08T04:00:31;3.70;;;3.00;;
7665;SDS011;3875;46.562;4.898;2023-04-08T04:02:56;4.17;;;2.93;;
7665;SDS011;3875;46.562;4.898;2023-04-08T04:05:22;6.53;;;2.70;;
7665;SDS011;3875;46.562;4.898;2023-04-08T04:07:48;5.60;;;3.57;;
7665;SDS011;3875;46.562;4.898;2023-04-08T04:10:13;4.60;;;2.83;;
7665;SDS011;3875;46.562;4.898;2023-04-08T04:12:39;3.17;;;2.70;;
7665;SDS011;3875;46.562;4.898;2023-04-08T04:15:05;3.53;;;2.67;;
7665;SDS011;3875;46.562;4.898;2023-04-08T04:17:31;3.83;;;3.10;;
7665;SDS011;3875;46.562;4.898;2023-04-08T04:19:56;5.53;;;2.93;;
7665;SDS011;3875;46.562;4.898;2023-04-08T04:22:22;3.83;;;2.77;;
7665;SDS011;3875;46.562;4.898;2023-04-08T04:24:48;4.40;;;2.50;;
7665;SDS011;3875;46.562;4.898;2023-04-08T04:27:14;5.43;;;2.63;;
7665;SDS011;3875;46.562;4.898;2023-04-08T04:29:41;4.67;;;3.17;;
7665;SDS011;3875;46.562;4.898;2023-04-08T04:32:07;5.93;;;2.60;;
7665;SDS011;3875;46.562;4.898;2023-04-08T04:34:33;5.87;;;2.87;;
7665;SDS011;3875;46.562;4.898;2023-04-08T04:36:58;4.70;;;2.97;;
7665;SDS011;3875;46.562;4.898;2023-04-08T04:39:24;2.80;;;2.40;;
7665;SDS011;3875;46.562;4.898;2023-04-08T04:41:50;3.97;;;2.90;;
7665;SDS011;3875;46.562;4.898;2023-04-08T04:44:16;5.07;;;3.00;;
7665;SDS011;3875;46.562;4.898;2023-04-08T04:46:41;6.83;;;2.40;;
7665;SDS011;3875;46.562;4.898;2023-04-08T04:49:07;3.37;;;2.47;;
7665;SDS011;3875;46.562;4.898;2023-04-08T04:51:33;3.50;;;2.70;;
7665;SDS011;3875;46.562;4.898;2023-04-08T04:53:58;4.43;;;2.97;;
7665;SDS011;3875;46.562;4.898;2023-04-08T04:56:24;3.80;;;2.77;;
7665;SDS011;3875;46.562;4.898;2023-04-08T04:58:51;6.13;;;3.00;;
7665;SDS011;3875;46.562;4.898;2023-04-08T05:01:16;7.10;;;3.00;;
7665;SDS011;3875;46.562;4.898;2023-04-08T05:03:42;3.17;;;2.30;;
7665;SDS011;3875;46.562;4.898;2023-04-08T05:06:08;5.27;;;2.70;;
7665;SDS011;3875;46.562;4.898;2023-04-08T05:08:33;4.00;;;2.80;;
7665;SDS011;3875;46.562;4.898;2023-04-08T05:10:59;6.17;;;3.00;;
7665;SDS011;3875;46.562;4.898;2023-04-08T05:13:29;4.53;;;3.17;;
7665;SDS011;3875;46.562;4.898;2023-04-08T05:15:56;5.17;;;2.67;;
7665;SDS011;3875;46.562;4.898;2023-04-08T05:18:22;2.90;;;2.60;;
7665;SDS011;3875;46.562;4.898;2023-04-08T05:20:47;5.77;;;3.13;;
7665;SDS011;3875;46.562;4.898;2023-04-08T05:23:13;4.73;;;3.43;;
7665;SDS011;3875;46.562;4.898;2023-04-08T05:25:39;5.67;;;2.63;;
7665;SDS011;3875;46.562;4.898;2023-04-08T05:28:05;4.47;;;2.57;;
7665;SDS011;3875;46.562;4.898;2023-04-08T05:30:31;7.97;;;3.00;;
7665;SDS011;3875;46.562;4.898;2023-04-08T05:32:56;3.23;;;2.93;;
7665;SDS011;3875;46.562;4.898;2023-04-08T05:35:22;4.60;;;3.10;;
7665;SDS011;3875;46.562;4.898;2023-04-08T05:37:48;2.30;;;1.77;;
7665;SDS011;3875;46.562;4.898;2023-04-08T05:40:13;3.30;;;2.67;;
7665;SDS011;3875;46.562;4.898;2023-04-08T05:42:39;3.50;;;2.57;;
7665;SDS011;3875;46.562;4.898;2023-04-08T05:45:06;5.30;;;3.10;;
7665;SDS011;3875;46.562;4.898;2023-04-08T05:47:32;4.43;;;2.70;;
7665;SDS011;3875;46.562;4.898;2023-04-08T05:49:58;2.57;;;1.97;;
7665;SDS011;3875;46.562;4.898;2023-04-08T05:52:23;3.90;;;3.00;;
7665;SDS011;3875;46.562;4.898;2023-04-08T05:54:49;4.37;;;3.63;;
7665;SDS011;3875;46.562;4.898;2023-04-08T05:57:15;3.73;;;2.53;;
7665;SDS011;3875;46.562;4.898;2023-04-08T05:59:41;6.83;;;3.83;;
7665;SDS011;3875;46.562;4.898;2023-04-08T06:02:06;5.50;;;2.93;;
7665;SDS011;3875;46.562;4.898;2023-04-08T06:04:32;4.03;;;3.27;;
7665;SDS011;3875;46.562;4.898;2023-04-08T06:06:58;4.63;;;3.50;;
7665;SDS011;3875;46.562;4.898;2023-04-08T06:09:26;5.77;;;3.40;;
7665;SDS011;3875;46.562;4.898;2023-04-08T06:11:52;5.77;;;3.27;;
7665;SDS011;3875;46.562;4.898;2023-04-08T06:14:17;5.17;;;3.20;;
7665;SDS011;3875;46.562;4.898;2023-04-08T06:16:44;5.33;;;3.70;;
7665;SDS011;3875;46.562;4.898;2023-04-08T06:19:10;4.77;;;3.10;;
7665;SDS011;3875;46.562;4.898;2023-04-08T06:21:36;3.77;;;3.33;;
7665;SDS011;3875;46.562;4.898;2023-04-08T06:24:01;6.40;;;3.90;;
7665;SDS011;3875;46.562;4.898;2023-04-08T06:26:27;4.43;;;3.80;;
7665;SDS011;3875;46.562;4.898;2023-04-08T06:28:53;8.23;;;4.07;;
7665;SDS011;3875;46.562;4.898;2023-04-08T06:31:18;3.80;;;3.20;;
7665;SDS011;3875;46.562;4.898;2023-04-08T06:33:44;3.73;;;3.00;;
7665;SDS011;3875;46.562;4.898;2023-04-08T06:36:10;4.53;;;3.87;;
7665;SDS011;3875;46.562;4.898;2023-04-08T06:38:37;7.70;;;4.40;;
7665;SDS011;3875;46.562;4.898;2023-04-08T06:41:03;6.17;;;3.90;;
7665;SDS011;3875;46.562;4.898;2023-04-08T06:43:32;7.83;;;5.27;;
7665;SDS011;3875;46.562;4.898;2023-04-08T06:45:59;8.23;;;4.10;;
7665;SDS011;3875;46.562;4.898;2023-04-08T06:48:25;8.27;;;4.57;;
7665;SDS011;3875;46.562;4.898;2023-04-08T06:50:54;8.80;;;4.87;;
7665;SDS011;3875;46.562;4.898;2023-04-08T06:53:23;6.67;;;4.43;;
7665;SDS011;3875;46.562;4.898;2023-04-08T06:55:50;6.27;;;4.30;;
7665;SDS011;3875;46.562;4.898;2023-04-08T06:58:16;5.13;;;4.37;;
7665;SDS011;3875;46.562;4.898;2023-04-08T07:00:41;5.90;;;4.47;;
7665;SDS011;3875;46.562;4.898;2023-04-08T07:03:07;8.23;;;4.17;;
7665;SDS011;3875;46.562;4.898;2023-04-08T07:05:36;4.50;;;3.70;;
7665;SDS011;3875;46.562;4.898;2023-04-08T07:08:02;5.87;;;4.10;;
7665;SDS011;3875;46.562;4.898;2023-04-08T07:10:29;7.33;;;4.17;;
7665;SDS011;3875;46.562;4.898;2023-04-08T07:12:54;5.57;;;4.23;;
7665;SDS011;3875;46.562;4.898;2023-04-08T07:15:20;8.00;;;4.80;;
7665;SDS011;3875;46.562;4.898;2023-04-08T07:17:46;6.37;;;3.87;;
7665;SDS011;3875;46.562;4.898;2023-04-08T07:20:12;8.10;;;5.10;;
7665;SDS011;3875;46.562;4.898;2023-04-08T07:22:41;7.80;;;4.70;;
7665;SDS011;3875;46.562;4.898;2023-04-08T07:25:06;8.20;;;4.43;;
7665;SDS011;3875;46.562;4.898;2023-04-08T07:27:33;10.43;;;5.57;;
7665;SDS011;3875;46.562;4.898;2023-04-08T07:29:59;7.27;;;4.83;;
7665;SDS011;3875;46.562;4.898;2023-04-08T07:32:25;4.87;;;4.37;;
7665;SDS011;3875;46.562;4.898;2023-04-08T07:34:51;6.83;;;4.73;;
7665;SDS011;3875;46.562;4.898;2023-04-08T07:37:17;6.07;;;4.53;;
7665;SDS011;3875;46.562;4.898;2023-04-08T07:39:43;8.27;;;5.17;;
7665;SDS011;3875;46.562;4.898;2023-04-08T07:42:08;5.80;;;4.40;;
7665;SDS011;3875;46.562;4.898;2023-04-08T07:44:34;9.53;;;6.07;;
7665;SDS011;3875;46.562;4.898;2023-04-08T07:47:00;7.07;;;5.20;;
7665;SDS011;3875;46.562;4.898;2023-04-08T07:49:25;7.50;;;5.18;;
7665;SDS011;3875;46.562;4.898;2023-04-08T07:51:51;5.23;;;4.53;;
7665;SDS011;3875;46.562;4.898;2023-04-08T07:54:17;5.27;;;4.27;;
7665;SDS011;3875;46.562;4.898;2023-04-08T07:56:43;5.97;;;3.93;;
7665;SDS011;3875;46.562;4.898;2023-04-08T07:59:12;6.47;;;4.50;;
7665;SDS011;3875;46.562;4.898;2023-04-08T08:01:37;6.87;;;5.00;;
7665;SDS011;3875;46.562;4.898;2023-04-08T08:04:03;6.27;;;4.93;;
7665;SDS011;3875;46.562;4.898;2023-04-08T08:06:29;6.53;;;4.73;;
7665;SDS011;3875;46.562;4.898;2023-04-08T08:08:57;6.07;;;4.57;;
7665;SDS011;3875;46.562;4.898;2023-04-08T08:11:24;5.27;;;3.50;;
7665;SDS011;3875;46.562;4.898;2023-04-08T08:13:52;7.37;;;5.47;;
7665;SDS011;3875;46.562;4.898;2023-04-08T08:16:18;5.73;;;4.77;;
7665;SDS011;3875;46.562;4.898;2023-04-08T08:18:43;6.77;;;3.97;;
7665;SDS011;3875;46.562;4.898;2023-04-08T08:21:09;5.63;;;5.00;;
7665;SDS011;3875;46.562;4.898;2023-04-08T08:23:36;5.53;;;3.90;;
7665;SDS011;3875;46.562;4.898;2023-04-08T08:26:03;6.17;;;5.03;;
7665;SDS011;3875;46.562;4.898;2023-04-08T08:28:30;6.33;;;4.33;;
7665;SDS011;3875;46.562;4.898;2023-04-08T08:30:56;4.30;;;3.90;;
7665;SDS011;3875;46.562;4.898;2023-04-08T08:33:23;5.07;;;4.57;;
7665;SDS011;3875;46.562;4.898;2023-04-08T08:35:49;6.10;;;3.93;;
7665;SDS011;3875;46.562;4.898;2023-04-08T08:38:15;4.23;;;2.80;;
7665;SDS011;3875;46.562;4.898;2023-04-08T08:40:42;6.30;;;4.53;;
7665;SDS011;3875;46.562;4.898;2023-04-08T08:43:08;5.23;;;4.50;;
7665;SDS011;3875;46.562;4.898;2023-04-08T08:45:38;4.83;;;3.83;;
7665;SDS011;3875;46.562;4.898;2023-04-08T08:48:05;6.33;;;5.07;;
7665;SDS011;3875;46.562;4.898;2023-04-08T08:50:33;6.37;;;4.77;;
7665;SDS011;3875;46.562;4.898;2023-04-08T08:52:59;6.03;;;4.63;;
7665;SDS011;3875;46.562;4.898;2023-04-08T08:55:25;5.67;;;3.80;;
7665;SDS011;3875;46.562;4.898;2023-04-08T08:57:54;4.13;;;3.13;;
7665;SDS011;3875;46.562;4.898;2023-04-08T09:00:29;5.67;;;4.10;;
7665;SDS011;3875;46.562;4.898;2023-04-08T09:03:00;7.27;;;4.23;;
7665;SDS011;3875;46.562;4.898;2023-04-08T09:06:00;6.07;;;4.40;;
7665;SDS011;3875;46.562;4.898;2023-04-08T09:13:36;5.43;;;4.37;;
7665;SDS011;3875;46.562;4.898;2023-04-08T09:16:03;6.37;;;3.07;;
7665;SDS011;3875;46.562;4.898;2023-04-08T09:18:31;5.77;;;4.00;;
7665;SDS011;3875;46.562;4.898;2023-04-08T09:21:04;7.63;;;3.70;;
7665;SDS011;3875;46.562;4.898;2023-04-08T09:26:15;1.43;;;1.33;;
7665;SDS011;3875;46.562;4.898;2023-04-08T09:28:42;4.83;;;3.70;;
7665;SDS011;3875;46.562;4.898;2023-04-08T09:31:22;6.80;;;2.83;;
7665;SDS011;3875;46.562;4.898;2023-04-08T09:33:50;5.07;;;2.97;;
7665;SDS011;3875;46.562;4.898;2023-04-08T09:36:18;6.10;;;4.40;;
7665;SDS011;3875;46.562;4.898;2023-04-08T09:38:44;20.03;;;13.60;;
7665;SDS011;3875;46.562;4.898;2023-04-08T09:41:14;2.90;;;2.43;;
7665;SDS011;3875;46.562;4.898;2023-04-08T09:43:52;3.27;;;2.77;;
7665;SDS011;3875;46.562;4.898;2023-04-08T09:49:17;4.37;;;3.47;;
7665;SDS011;3875;46.562;4.898;2023-04-08T09:54:41;2.57;;;1.90;;
7665;SDS011;3875;46.562;4.898;2023-04-08T09:57:09;3.97;;;2.50;;
7665;SDS011;3875;46.562;4.898;2023-04-08T09:59:38;1.97;;;1.47;;
7665;SDS011;3875;46.562;4.898;2023-04-08T10:02:24;4.23;;;2.80;;
7665;SDS011;3875;46.562;4.898;2023-04-08T10:04:58;3.30;;;2.37;;
7665;SDS011;3875;46.562;4.898;2023-04-08T10:07:25;1.77;;;1.50;;
7665;SDS011;3875;46.562;4.898;2023-04-08T10:09:50;3.30;;;2.10;;
7665;SDS011;3875;46.562;4.898;2023-04-08T10:12:16;3.33;;;2.40;;
7665;SDS011;3875;46.562;4.898;2023-04-08T10:15:05;2.63;;;1.93;;
7665;SDS011;3875;46.562;4.898;2023-04-08T10:17:50;3.93;;;2.50;;
7665;SDS011;3875;46.562;4.898;2023-04-08T10:23:01;3.60;;;2.23;;
7665;SDS011;3875;46.562;4.898;2023-04-08T10:25:33;3.17;;;2.20;;
7665;SDS011;3875;46.562;4.898;2023-04-08T10:28:00;3.20;;;2.30;;
7665;SDS011;3875;46.562;4.898;2023-04-08T10:30:50;3.03;;;2.30;;
7665;SDS011;3875;46.562;4.898;2023-04-08T10:33:38;2.70;;;1.73;;
7665;SDS011;3875;46.562;4.898;2023-04-08T10:38:39;2.07;;;1.33;;
7665;SDS011;3875;46.562;4.898;2023-04-08T10:41:06;1.87;;;1.77;;
7665;SDS011;3875;46.562;4.898;2023-04-08T10:43:35;2.63;;;2.10;;
7665;SDS011;3875;46.562;4.898;2023-04-08T10:46:01;3.90;;;1.77;;
7665;SDS011;3875;46.562;4.898;2023-04-08T10:48:27;2.87;;;1.77;;
7665;SDS011;3875;46.562;4.898;2023-04-08T10:50:54;1.80;;;1.60;;
7665;SDS011;3875;46.562;4.898;2023-04-08T10:53:35;1.83;;;1.73;;
7665;SDS011;3875;46.562;4.898;2023-04-08T10:56:05;2.53;;;1.70;;
7665;SDS011;3875;46.562;4.898;2023-04-08T10:58:49;2.63;;;2.00;;
7665;SDS011;3875;46.562;4.898;2023-04-08T11:01:20;1.80;;;1.70;;
7665;SDS011;3875;46.562;4.898;2023-04-08T11:03:46;2.33;;;1.90;;
7665;SDS011;3875;46.562;4.898;2023-04-08T11:06:12;2.17;;;1.97;;
7665;SDS011;3875;46.562;4.898;2023-04-08T11:08:37;1.80;;;1.70;;
7665;SDS011;3875;46.562;4.898;2023-04-08T11:11:04;1.53;;;1.43;;
7665;SDS011;3875;46.562;4.898;2023-04-08T11:13:38;2.47;;;1.80;;
7665;SDS011;3875;46.562;4.898;2023-04-08T11:16:08;2.83;;;1.97;;
7665;SDS011;3875;46.562;4.898;2023-04-08T11:18:34;4.23;;;1.63;;
7665;SDS011;3875;46.562;4.898;2023-04-08T11:21:02;2.03;;;1.80;;
7665;SDS011;3875;46.562;4.898;2023-04-08T11:23:32;4.13;;;2.10;;
7665;SDS011;3875;46.562;4.898;2023-04-08T11:25:58;1.53;;;1.43;;
7665;SDS011;3875;46.562;4.898;2023-04-08T11:28:24;2.03;;;1.80;;
7665;SDS011;3875;46.562;4.898;2023-04-08T11:30:50;1.50;;;1.40;;
7665;SDS011;3875;46.562;4.898;2023-04-08T11:33:17;1.97;;;1.77;;
7665;SDS011;3875;46.562;4.898;2023-04-08T11:35:43;1.93;;;1.60;;
7665;SDS011;3875;46.562;4.898;2023-04-08T11:38:09;3.17;;;1.60;;
7665;SDS011;3875;46.562;4.898;2023-04-08T11:40:36;2.07;;;1.77;;
7665;SDS011;3875;46.562;4.898;2023-04-08T11:43:09;2.00;;;1.50;;
7665;SDS011;3875;46.562;4.898;2023-04-08T11:45:38;2.60;;;2.10;;
7665;SDS011;3875;46.562;4.898;2023-04-08T11:48:11;1.87;;;1.60;;
7665;SDS011;3875;46.562;4.898;2023-04-08T11:50:38;1.50;;;1.40;;
7665;SDS011;3875;46.562;4.898;2023-04-08T11:53:21;4.57;;;1.57;;
7665;SDS011;3875;46.562;4.898;2023-04-08T11:55:49;1.50;;;1.40;;
7665;SDS011;3875;46.562;4.898;2023-04-08T11:58:15;2.73;;;1.40;;
7665;SDS011;3875;46.562;4.898;2023-04-08T12:00:41;2.57;;;1.70;;
7665;SDS011;3875;46.562;4.898;2023-04-08T12:03:07;2.63;;;1.83;;
7665;SDS011;3875;46.562;4.898;2023-04-08T12:05:34;1.87;;;1.57;;
7665;SDS011;3875;46.562;4.898;2023-04-08T12:08:00;2.53;;;1.20;;
7665;SDS011;3875;46.562;4.898;2023-04-08T12:10:26;1.37;;;1.23;;
7665;SDS011;3875;46.562;4.898;2023-04-08T12:12:52;1.10;;;1.10;;
7665;SDS011;3875;46.562;4.898;2023-04-08T12:15:17;3.17;;;1.30;;
7665;SDS011;3875;46.562;4.898;2023-04-08T12:17:44;1.43;;;1.27;;
7665;SDS011;3875;46.562;4.898;2023-04-08T12:20:10;1.97;;;1.60;;
7665;SDS011;3875;46.562;4.898;2023-04-08T12:22:36;1.70;;;1.60;;
7665;SDS011;3875;46.562;4.898;2023-04-08T12:25:02;1.30;;;1.20;;
7665;SDS011;3875;46.562;4.898;2023-04-08T12:27:29;1.60;;;1.40;;
7665;SDS011;3875;46.562;4.898;2023-04-08T12:29:57;1.60;;;1.50;;
7665;SDS011;3875;46.562;4.898;2023-04-08T12:32:23;2.03;;;1.80;;
7665;SDS011;3875;46.562;4.898;2023-04-08T12:34:49;2.23;;;1.33;;
7665;SDS011;3875;46.562;4.898;2023-04-08T12:37:15;2.03;;;1.30;;
7665;SDS011;3875;46.562;4.898;2023-04-08T12:39:41;2.37;;;1.33;;
7665;SDS011;3875;46.562;4.898;2023-04-08T12:42:07;1.10;;;1.07;;
7665;SDS011;3875;46.562;4.898;2023-04-08T12:44:33;1.60;;;1.30;;
7665;SDS011;3875;46.562;4.898;2023-04-08T12:46:58;1.67;;;1.53;;
7665;SDS011;3875;46.562;4.898;2023-04-08T12:49:24;2.03;;;1.00;;
7665;SDS011;3875;46.562;4.898;2023-04-08T12:51:51;1.07;;;1.07;;
7665;SDS011;3875;46.562;4.898;2023-04-08T12:54:17;2.10;;;1.33;;
7665;SDS011;3875;46.562;4.898;2023-04-08T12:56:43;1.77;;;1.63;;
7665;SDS011;3875;46.562;4.898;2023-04-08T12:59:09;2.27;;;1.27;;
7665;SDS011;3875;46.562;4.898;2023-04-08T13:01:35;1.07;;;1.03;;
7665;SDS011;3875;46.562;4.898;2023-04-08T13:04:01;0.80;;;0.80;;
7665;SDS011;3875;46.562;4.898;2023-04-08T13:06:26;1.53;;;1.20;;
7665;SDS011;3875;46.562;4.898;2023-04-08T13:08:52;1.83;;;1.20;;
7665;SDS011;3875;46.562;4.898;2023-04-08T13:11:18;1.10;;;1.10;;
7665;SDS011;3875;46.562;4.898;2023-04-08T13:13:45;1.40;;;1.30;;
7665;SDS011;3875;46.562;4.898;2023-04-08T13:16:14;1.50;;;1.37;;
7665;SDS011;3875;46.562;4.898;2023-04-08T13:18:40;0.80;;;0.80;;
7665;SDS011;3875;46.562;4.898;2023-04-08T13:21:06;1.50;;;1.40;;
7665;SDS011;3875;46.562;4.898;2023-04-08T13:23:32;1.57;;;1.20;;
7665;SDS011;3875;46.562;4.898;2023-04-08T13:25:58;1.70;;;1.53;;
7665;SDS011;3875;46.562;4.898;2023-04-08T13:28:24;3.23;;;1.40;;
7665;SDS011;3875;46.562;4.898;2023-04-08T13:30:50;1.20;;;1.13;;
7665;SDS011;3875;46.562;4.898;2023-04-08T13:33:15;1.40;;;1.30;;
7665;SDS011;3875;46.562;4.898;2023-04-08T13:35:41;1.90;;;1.50;;
7665;SDS011;3875;46.562;4.898;2023-04-08T13:38:07;2.07;;;1.20;;
7665;SDS011;3875;46.562;4.898;2023-04-08T13:40:33;1.40;;;1.30;;
7665;SDS011;3875;46.562;4.898;2023-04-08T13:42:58;1.30;;;1.20;;
7665;SDS011;3875;46.562;4.898;2023-04-08T13:45:24;1.00;;;0.90;;
7665;SDS011;3875;46.562;4.898;2023-04-08T13:47:50;1.77;;;1.30;;
7665;SDS011;3875;46.562;4.898;2023-04-08T13:50:15;1.37;;;1.27;;
7665;SDS011;3875;46.562;4.898;2023-04-08T13:52:41;0.80;;;0.80;;
7665;SDS011;3875;46.562;4.898;2023-04-08T13:55:07;1.87;;;1.47;;
7665;SDS011;3875;46.562;4.898;2023-04-08T13:57:33;1.50;;;1.40;;
7665;SDS011;3875;46.562;4.898;2023-04-08T13:59:58;2.57;;;2.20;;
7665;SDS011;3875;46.562;4.898;2023-04-08T14:02:24;4.03;;;3.03;;
7665;SDS011;3875;46.562;4.898;2023-04-08T14:04:50;4.73;;;3.37;;
7665;SDS011;3875;46.562;4.898;2023-04-08T14:07:16;2.33;;;1.50;;
7665;SDS011;3875;46.562;4.898;2023-04-08T14:09:43;1.20;;;1.10;;
7665;SDS011;3875;46.562;4.898;2023-04-08T14:12:08;14.87;;;10.90;;
7665;SDS011;3875;46.562;4.898;2023-04-08T14:14:34;1.27;;;1.20;;
7665;SDS011;3875;46.562;4.898;2023-04-08T14:17:00;1.30;;;1.20;;
7665;SDS011;3875;46.562;4.898;2023-04-08T14:19:26;1.30;;;1.20;;
7665;SDS011;3875;46.562;4.898;2023-04-08T14:21:51;1.73;;;1.20;;
7665;SDS011;3875;46.562;4.898;2023-04-08T14:24:17;2.10;;;1.27;;
7665;SDS011;3875;46.562;4.898;2023-04-08T14:26:43;2.33;;;1.77;;
7665;SDS011;3875;46.562;4.898;2023-04-08T14:29:09;2.03;;;1.70;;
7665;SDS011;3875;46.562;4.898;2023-04-08T14:31:35;1.10;;;1.10;;
7665;SDS011;3875;46.562;4.898;2023-04-08T14:34:01;2.03;;;1.20;;
7665;SDS011;3875;46.562;4.898;2023-04-08T14:36:27;2.03;;;1.50;;
7665;SDS011;3875;46.562;4.898;2023-04-08T14:38:54;2.53;;;1.70;;
7665;SDS011;3875;46.562;4.898;2023-04-08T14:41:20;2.47;;;1.57;;
7665;SDS011;3875;46.562;4.898;2023-04-08T14:43:46;1.43;;;1.33;;
7665;SDS011;3875;46.562;4.898;2023-04-08T14:46:12;2.00;;;1.23;;
7665;SDS011;3875;46.562;4.898;2023-04-08T14:48:38;0.90;;;0.90;;
7665;SDS011;3875;46.562;4.898;2023-04-08T14:51:04;1.90;;;0.87;;
7665;SDS011;3875;46.562;4.898;2023-04-08T14:53:30;2.63;;;1.70;;
7665;SDS011;3875;46.562;4.898;2023-04-08T14:55:57;1.70;;;1.30;;
7665;SDS011;3875;46.562;4.898;2023-04-08T14:58:23;1.00;;;0.90;;
7665;SDS011;3875;46.562;4.898;2023-04-08T15:00:48;2.03;;;1.60;;
7665;SDS011;3875;46.562;4.898;2023-04-08T15:03:14;1.10;;;1.10;;
7665;SDS011;3875;46.562;4.898;2023-04-08T15:05:40;1.10;;;0.90;;
7665;SDS011;3875;46.562;4.898;2023-04-08T15:08:06;2.40;;;1.43;;
7665;SDS011;3875;46.562;4.898;2023-04-08T15:10:33;3.70;;;1.30;;
7665;SDS011;3875;46.562;4.898;2023-04-08T15:12:59;1.40;;;1.30;;
7665;SDS011;3875;46.562;4.898;2023-04-08T15:15:24;6.20;;;1.50;;
7665;SDS011;3875;46.562;4.898;2023-04-08T15:17:50;1.73;;;1.20;;
7665;SDS011;3875;46.562;4.898;2023-04-08T15:20:16;1.10;;;1.00;;
7665;SDS011;3875;46.562;4.898;2023-04-08T15:22:42;1.50;;;1.00;;
7665;SDS011;3875;46.562;4.898;2023-04-08T15:25:09;1.33;;;1.23;;
7665;SDS011;3875;46.562;4.898;2023-04-08T15:27:35;4.63;;;1.23;;
7665;SDS011;3875;46.562;4.898;2023-04-08T15:30:01;1.50;;;1.37;;
7665;SDS011;3875;46.562;4.898;2023-04-08T15:32:28;2.30;;;1.60;;
7665;SDS011;3875;46.562;4.898;2023-04-08T15:34:54;1.77;;;1.33;;
7665;SDS011;3875;46.562;4.898;2023-04-08T15:37:19;1.23;;;1.13;;
7665;SDS011;3875;46.562;4.898;2023-04-08T15:39:46;1.87;;;1.47;;
7665;SDS011;3875;46.562;4.898;2023-04-08T15:42:12;0.87;;;0.87;;
7665;SDS011;3875;46.562;4.898;2023-04-08T15:44:38;1.80;;;1.33;;